createdAt,value
2022-08-23T00:00:01.195Z,92.19
2022-08-23T00:05:31.428Z,92.52
2022-08-23T00:10:34.412Z,92.51
2022-08-23T00:15:37.895Z,92.80
2022-08-23T00:20:40.633Z,93.49
2022-08-23T00:25:43.934Z,93.95
2022-08-23T00:30:46.713Z,94.19
2022-08-23T00:35:49.978Z,94.27
2022-08-23T00:40:53.933Z,94.68
2022-08-23T00:46:33.574Z,95.07
2022-08-23T00:51:57.765Z,95.38
2022-08-23T00:57:05.672Z,95.10
2022-08-23T01:02:09.956Z,95.52
2022-08-23T01:07:19.609Z,95.76
2022-08-23T01:12:35.516Z,95.80
2022-08-23T01:17:46.573Z,96.20
2022-08-23T01:22:59.018Z,96.22
2022-08-23T01:28:01.991Z,96.47
2022-08-23T01:33:07.426Z,96.86
2022-08-23T01:38:11.685Z,97.22
2022-08-23T01:43:15.509Z,97.34
2022-08-23T01:48:18.907Z,97.24
2022-08-23T01:53:21.578Z,97.52
2022-08-23T01:58:24.781Z,97.75
2022-08-23T02:03:29.718Z,97.99
2022-08-23T02:08:52.463Z,98.13
2022-08-23T02:13:58.934Z,98.67
2022-08-23T02:19:06.078Z,99.00
2022-08-23T02:24:22.086Z,99.17
2022-08-23T02:29:29.671Z,98.70
2022-08-23T02:34:32.544Z,98.79
2022-08-23T02:39:38.774Z,98.76
2022-08-23T02:44:42.102Z,98.98
2022-08-23T02:49:44.858Z,99.01
2022-08-23T02:54:50.589Z,99.26
2022-08-23T02:59:56.016Z,99.70
2022-08-23T03:04:59.319Z,99.90
2022-08-23T03:10:02.476Z,99.90
2022-08-23T03:15:06.889Z,99.95
2022-08-23T03:20:11.241Z,100.00
2022-08-23T03:25:13.925Z,100.00
2022-08-23T03:30:19.935Z,100.00
2022-08-23T03:35:23.022Z,100.00
2022-08-23T03:40:26.114Z,100.00
2022-08-23T03:45:29.759Z,100.00
2022-08-23T03:50:32.533Z,100.00
2022-08-23T03:55:38.502Z,100.00
2022-08-23T04:00:45.320Z,100.00
2022-08-23T04:05:48.548Z,100.00
2022-08-23T04:10:51.304Z,100.00
2022-08-23T04:15:55.231Z,100.00
2022-08-23T04:21:01.517Z,100.00
2022-08-23T04:26:05.923Z,100.00
2022-08-23T04:31:12.556Z,100.00
2022-08-23T04:36:15.281Z,100.00
2022-08-23T04:41:37.591Z,100.00
2022-08-23T04:46:40.917Z,100.00
2022-08-23T04:51:43.829Z,100.00
2022-08-23T04:56:56.682Z,100.00
2022-08-23T05:01:59.489Z,100.00
2022-08-23T05:07:02.701Z,100.00
2022-08-23T05:12:05.794Z,100.00
2022-08-23T05:17:08.509Z,99.95
2022-08-23T05:22:12.537Z,99.23
2022-08-23T05:27:16.186Z,98.50
2022-08-23T05:32:19.160Z,97.04
2022-08-23T05:37:21.913Z,95.83
2022-08-23T05:42:24.705Z,95.14
2022-08-23T05:47:28.279Z,94.45
2022-08-23T05:52:36.678Z,93.59
2022-08-23T05:57:39.674Z,92.64
2022-08-23T06:02:43.084Z,92.11
2022-08-23T06:07:45.863Z,91.20
2022-08-23T06:12:49.108Z,91.37
2022-08-23T06:17:51.883Z,91.06
2022-08-23T06:22:54.662Z,88.76
2022-08-23T06:27:58.892Z,86.83
2022-08-23T06:33:02.956Z,84.97
2022-08-23T06:38:06.966Z,83.46
2022-08-23T06:43:09.968Z,81.87
2022-08-23T06:48:17.022Z,79.64
2022-08-23T06:53:21.453Z,78.23
2022-08-23T06:58:25.422Z,76.41
2022-08-23T07:03:28.655Z,75.34
2022-08-23T07:08:31.452Z,74.38
2022-08-23T07:13:34.605Z,73.93
2022-08-23T07:18:37.680Z,73.28
2022-08-23T07:23:42.836Z,72.79
2022-08-23T07:28:50.334Z,72.45
2022-08-23T07:33:58.859Z,71.89
2022-08-23T07:39:04.549Z,73.61
2022-08-23T07:44:10.186Z,74.96
2022-08-23T07:49:13.672Z,75.26
2022-08-23T07:54:18.376Z,75.98
2022-08-23T07:59:21.087Z,75.66
2022-08-23T08:04:23.765Z,73.70
2022-08-23T08:09:26.611Z,70.89
2022-08-23T08:14:29.718Z,68.39
2022-08-23T08:19:32.521Z,65.77
2022-08-23T08:24:35.795Z,61.64
2022-08-23T08:29:38.695Z,55.59
2022-08-23T08:34:42.122Z,46.30
2022-08-23T08:39:48.013Z,39.98
2022-08-23T08:45:05.656Z,35.13
2022-08-23T08:50:14.562Z,29.94
2022-08-23T08:55:32.077Z,30.32
2022-08-23T09:00:39.237Z,31.80
2022-08-23T09:05:56.393Z,29.38
2022-08-23T09:11:24.157Z,27.10
2022-08-23T09:16:41.819Z,25.07
2022-08-23T09:21:49.776Z,23.19
2022-08-23T09:26:54.034Z,22.33
2022-08-23T09:32:02.344Z,21.67
2022-08-23T09:37:18.009Z,21.57
2022-08-23T09:42:35.982Z,21.11
2022-08-23T09:47:44.869Z,21.34
2022-08-23T09:52:48.741Z,21.78
2022-08-23T09:57:52.108Z,21.19
2022-08-23T10:02:57.997Z,20.51
2022-08-23T10:08:02.624Z,20.15
2022-08-23T10:13:06.240Z,19.63
2022-08-23T10:18:29.081Z,20.70
2022-08-23T10:23:56.427Z,22.80
2022-08-23T10:29:23.254Z,25.27
2022-08-23T10:34:31.748Z,26.93
2022-08-23T10:40:03.518Z,28.02
2022-08-23T10:45:30.586Z,26.55
2022-08-23T10:50:43.067Z,26.23
2022-08-23T10:56:15.629Z,27.30
2022-08-23T11:01:44.247Z,27.32
2022-08-23T11:06:55.550Z,25.35
2022-08-23T11:12:23.668Z,23.51
2022-08-23T11:17:48.382Z,23.12
2022-08-23T11:22:57.411Z,22.15
2022-08-23T11:28:22.127Z,21.25
2022-08-23T11:33:31.492Z,20.58
2022-08-23T11:38:49.337Z,20.13
2022-08-23T11:44:07.825Z,20.03
2022-08-23T11:49:28.927Z,19.92
2022-08-23T11:54:56.832Z,19.87
2022-08-23T12:00:28.633Z,19.57
2022-08-23T12:05:35.411Z,20.05
2022-08-23T12:10:38.073Z,20.02
2022-08-23T12:16:16.917Z,19.86
2022-08-23T12:21:43.987Z,19.79
2022-08-23T12:27:11.429Z,19.61
2022-08-23T12:32:37.917Z,20.35
2022-08-23T12:37:56.881Z,20.79
2022-08-23T12:43:23.112Z,21.93
2022-08-23T12:48:30.216Z,22.59
2022-08-23T12:53:38.520Z,25.71
2022-08-23T12:58:52.515Z,29.67
2022-08-23T13:04:06.321Z,33.60
2022-08-23T13:09:22.659Z,36.80
2022-08-23T13:14:26.733Z,39.62
2022-08-23T13:19:34.118Z,42.11
2022-08-23T13:24:40.422Z,44.32
2022-08-23T13:29:52.317Z,46.61
2022-08-23T13:34:56.710Z,49.46
2022-08-23T13:40:14.281Z,51.12
2022-08-23T13:45:25.532Z,52.65
2022-08-23T13:50:35.291Z,54.54
2022-08-23T13:55:46.461Z,56.38
2022-08-23T14:00:55.303Z,58.38
2022-08-23T14:05:58.386Z,62.84
2022-08-23T14:11:01.492Z,71.98
2022-08-23T14:21:32.327Z,84.09
2022-08-23T14:26:35.302Z,89.30
2022-08-23T14:31:38.245Z,94.02
2022-08-23T14:38:00.239Z,95.95
2022-08-23T14:42:07.989Z,97.10
2022-08-23T14:47:11.529Z,97.63
2022-08-23T14:52:15.626Z,99.80
2022-08-23T14:57:18.418Z,100.00
2022-08-23T15:02:24.823Z,100.00
2022-08-23T15:07:27.762Z,100.00
2022-08-23T15:17:57.627Z,100.00
2022-08-23T15:23:01.012Z,100.00
2022-08-23T15:28:12.204Z,100.00
2022-08-23T15:33:16.040Z,100.00
2022-08-23T15:38:22.968Z,100.00
2022-08-23T15:43:34.104Z,100.00
2022-08-23T15:48:44.736Z,100.00
2022-08-23T15:53:47.877Z,100.00
2022-08-23T15:58:54.114Z,100.00
2022-08-23T16:03:57.562Z,100.00
2022-08-23T16:09:00.871Z,100.00
2022-08-23T16:14:03.901Z,100.00
2022-08-23T16:19:08.918Z,100.00
2022-08-23T16:24:12.028Z,100.00
2022-08-23T16:29:18.222Z,100.00
2022-08-23T16:34:21.061Z,100.00
2022-08-23T16:39:24.475Z,100.00
2022-08-23T16:44:28.590Z,100.00
2022-08-23T16:49:34.378Z,100.00
2022-08-23T16:54:37.993Z,100.00
2022-08-23T16:59:40.796Z,100.00
2022-08-23T17:04:43.507Z,100.00
2022-08-23T17:09:47.221Z,100.00
2022-08-23T17:14:51.512Z,100.00
2022-08-23T17:19:54.312Z,100.00
2022-08-23T17:24:57.616Z,100.00
2022-08-23T17:30:00.835Z,100.00
2022-08-23T17:35:03.871Z,100.00
2022-08-23T17:40:10.840Z,100.00
2022-08-23T17:45:16.538Z,100.00
2022-08-23T17:50:20.780Z,100.00
2022-08-23T17:55:24.853Z,100.00
2022-08-23T18:00:28.726Z,100.00
2022-08-23T18:05:33.398Z,100.00
2022-08-23T18:10:36.671Z,100.00
2022-08-23T18:15:39.657Z,100.00
2022-08-23T18:20:42.399Z,100.00
2022-08-23T18:25:45.922Z,100.00
2022-08-23T18:30:54.730Z,100.00
2022-08-23T18:35:57.530Z,100.00
2022-08-23T18:41:00.273Z,100.00
2022-08-23T18:46:03.121Z,100.00
2022-08-23T18:51:16.301Z,100.00
2022-08-23T18:56:21.283Z,100.00
2022-08-23T19:01:26.757Z,100.00
2022-08-23T19:06:30.344Z,100.00
2022-08-23T19:11:33.653Z,100.00
2022-08-23T19:16:37.249Z,100.00
2022-08-23T19:21:40.267Z,100.00
2022-08-23T19:26:47.793Z,100.00
2022-08-23T19:31:50.768Z,100.00
2022-08-23T19:37:00.778Z,100.00
2022-08-23T19:42:11.458Z,100.00
2022-08-23T19:47:17.693Z,100.00
2022-08-23T19:52:23.046Z,100.00
2022-08-23T19:57:28.110Z,100.00
2022-08-23T20:02:30.982Z,100.00
2022-08-23T20:07:36.326Z,100.00
2022-08-23T20:12:39.389Z,100.00
2022-08-23T20:17:42.312Z,100.00
2022-08-23T20:23:04.169Z,100.00
2022-08-23T20:28:08.384Z,100.00
2022-08-23T20:33:11.139Z,100.00
2022-08-23T20:38:32.753Z,100.00
2022-08-23T20:43:39.152Z,100.00
2022-08-23T20:48:41.952Z,100.00
2022-08-23T20:53:45.677Z,100.00
2022-08-23T20:58:48.493Z,100.00
2022-08-23T21:03:52.425Z,100.00
2022-08-23T21:08:57.981Z,100.00
2022-08-23T21:14:00.955Z,100.00
2022-08-23T21:19:03.921Z,100.00
2022-08-23T21:24:08.937Z,100.00
2022-08-23T21:29:11.941Z,100.00
2022-08-23T21:34:15.179Z,100.00
2022-08-23T21:39:17.980Z,100.00
2022-08-23T21:44:21.396Z,100.00
2022-08-23T21:49:24.222Z,100.00
2022-08-23T21:54:27.295Z,100.00
2022-08-23T21:59:30.088Z,100.00
2022-08-23T22:04:33.000Z,100.00
2022-08-23T22:09:36.144Z,100.00
2022-08-23T22:14:39.030Z,100.00
2022-08-23T22:19:41.766Z,100.00
2022-08-23T22:24:44.531Z,100.00
2022-08-23T22:29:47.562Z,100.00
2022-08-23T22:34:50.367Z,100.00
2022-08-23T22:39:56.388Z,100.00
2022-08-23T22:45:00.353Z,100.00
2022-08-23T22:50:04.643Z,100.00
2022-08-23T22:55:08.375Z,100.00
2022-08-23T23:00:13.693Z,100.00
2022-08-23T23:05:16.496Z,100.00
2022-08-23T23:10:19.357Z,100.00
2022-08-23T23:15:22.463Z,100.00
2022-08-23T23:20:39.330Z,100.00
2022-08-23T23:25:42.953Z,100.00
2022-08-23T23:30:48.642Z,100.00
2022-08-23T23:35:54.334Z,100.00
2022-08-23T23:40:57.088Z,100.00
2022-08-23T23:46:05.023Z,100.00
2022-08-23T23:51:13.212Z,100.00
2022-08-23T23:56:17.771Z,100.00
